sensor_id;sensor_type;location;lat;lon;timestamp;P1;durP1;ratioP1;P2;durP2;ratioP2
60312;SDS011;46158;52.850;6.970;2023-06-10T00:00:15;10.48;;;3.70;;
60312;SDS011;46158;52.850;6.970;2023-06-10T00:02:41;9.63;;;3.30;;
60312;SDS011;46158;52.850;6.970;2023-06-10T00:05:09;8.73;;;3.50;;
60312;SDS011;46158;52.850;6.970;2023-06-10T00:07:35;9.38;;;3.50;;
60312;SDS011;46158;52.850;6.970;2023-06-10T00:10:04;9.18;;;3.60;;
60312;SDS011;46158;52.850;6.970;2023-06-10T00:12:31;8.40;;;3.25;;
60312;SDS011;46158;52.850;6.970;2023-06-10T00:15:05;10.80;;;3.67;;
60312;SDS011;46158;52.850;6.970;2023-06-10T00:17:35;8.93;;;3.40;;
60312;SDS011;46158;52.850;6.970;2023-06-10T00:20:13;8.63;;;3.53;;
60312;SDS011;46158;52.850;6.970;2023-06-10T00:22:39;8.38;;;3.35;;
60312;SDS011;46158;52.850;6.970;2023-06-10T00:25:12;8.90;;;3.50;;
60312;SDS011;46158;52.850;6.970;2023-06-10T00:27:38;9.55;;;3.35;;
60312;SDS011;46158;52.850;6.970;2023-06-10T00:30:13;9.40;;;3.38;;
60312;SDS011;46158;52.850;6.970;2023-06-10T00:32:44;9.75;;;3.38;;
60312;SDS011;46158;52.850;6.970;2023-06-10T00:35:10;9.20;;;3.40;;
60312;SDS011;46158;52.850;6.970;2023-06-10T00:37:36;9.68;;;3.40;;
60312;SDS011;46158;52.850;6.970;2023-06-10T00:40:02;11.23;;;3.40;;
60312;SDS011;46158;52.850;6.970;2023-06-10T00:42:29;8.90;;;3.17;;
60312;SDS011;46158;52.850;6.970;2023-06-10T00:44:58;9.57;;;3.63;;
60312;SDS011;46158;52.850;6.970;2023-06-10T00:47:24;8.35;;;3.00;;
60312;SDS011;46158;52.850;6.970;2023-06-10T00:49:54;9.02;;;3.35;;
60312;SDS011;46158;52.850;6.970;2023-06-10T00:52:20;9.68;;;3.40;;
60312;SDS011;46158;52.850;6.970;2023-06-10T00:54:52;10.85;;;3.50;;
60312;SDS011;46158;52.850;6.970;2023-06-10T01:00:12;12.10;;;3.65;;
60312;SDS011;46158;52.850;6.970;2023-06-10T01:02:45;8.20;;;3.30;;
60312;SDS011;46158;52.850;6.970;2023-06-10T01:05:14;7.97;;;3.30;;
60312;SDS011;46158;52.850;6.970;2023-06-10T01:11:03;7.45;;;3.20;;
60312;SDS011;46158;52.850;6.970;2023-06-10T01:13:37;10.15;;;3.33;;
60312;SDS011;46158;52.850;6.970;2023-06-10T01:16:09;7.78;;;3.00;;
60312;SDS011;46158;52.850;6.970;2023-06-10T01:18:44;8.35;;;3.40;;
60312;SDS011;46158;52.850;6.970;2023-06-10T01:21:20;6.95;;;3.17;;
60312;SDS011;46158;52.850;6.970;2023-06-10T01:23:52;8.93;;;3.42;;
60312;SDS011;46158;52.850;6.970;2023-06-10T01:26:22;9.50;;;3.83;;
60312;SDS011;46158;52.850;6.970;2023-06-10T01:31:37;11.35;;;3.60;;
60312;SDS011;46158;52.850;6.970;2023-06-10T01:34:12;11.45;;;4.07;;
60312;SDS011;46158;52.850;6.970;2023-06-10T01:36:41;11.27;;;3.85;;
60312;SDS011;46158;52.850;6.970;2023-06-10T01:39:14;9.25;;;3.70;;
60312;SDS011;46158;52.850;6.970;2023-06-10T01:41:47;11.50;;;3.58;;
60312;SDS011;46158;52.850;6.970;2023-06-10T01:44:17;10.30;;;3.60;;
60312;SDS011;46158;52.850;6.970;2023-06-10T01:46:47;10.02;;;3.75;;
60312;SDS011;46158;52.850;6.970;2023-06-10T01:49:13;10.15;;;3.63;;
60312;SDS011;46158;52.850;6.970;2023-06-10T01:51:40;8.32;;;3.45;;
60312;SDS011;46158;52.850;6.970;2023-06-10T01:54:09;14.48;;;3.97;;
60312;SDS011;46158;52.850;6.970;2023-06-10T01:56:35;11.50;;;3.85;;
60312;SDS011;46158;52.850;6.970;2023-06-10T01:59:01;9.80;;;3.40;;
60312;SDS011;46158;52.850;6.970;2023-06-10T02:01:28;10.60;;;3.85;;
60312;SDS011;46158;52.850;6.970;2023-06-10T02:03:57;13.00;;;3.97;;
60312;SDS011;46158;52.850;6.970;2023-06-10T02:06:26;12.40;;;4.20;;
60312;SDS011;46158;52.850;6.970;2023-06-10T02:09:04;12.18;;;4.32;;
60312;SDS011;46158;52.850;6.970;2023-06-10T02:11:33;12.32;;;4.10;;
60312;SDS011;46158;52.850;6.970;2023-06-10T02:13:59;14.07;;;4.20;;
60312;SDS011;46158;52.850;6.970;2023-06-10T02:16:25;11.88;;;4.07;;
60312;SDS011;46158;52.850;6.970;2023-06-10T02:18:54;14.00;;;4.30;;
60312;SDS011;46158;52.850;6.970;2023-06-10T02:21:21;15.55;;;4.40;;
60312;SDS011;46158;52.850;6.970;2023-06-10T02:23:53;13.73;;;4.57;;
60312;SDS011;46158;52.850;6.970;2023-06-10T02:26:22;12.80;;;4.18;;
60312;SDS011;46158;52.850;6.970;2023-06-10T02:28:51;12.48;;;4.15;;
60312;SDS011;46158;52.850;6.970;2023-06-10T02:31:17;9.88;;;4.00;;
60312;SDS011;46158;52.850;6.970;2023-06-10T02:33:44;10.38;;;3.92;;
60312;SDS011;46158;52.850;6.970;2023-06-10T02:36:10;10.95;;;4.07;;
60312;SDS011;46158;52.850;6.970;2023-06-10T02:38:41;11.80;;;4.28;;
60312;SDS011;46158;52.850;6.970;2023-06-10T02:41:10;12.57;;;4.40;;
60312;SDS011;46158;52.850;6.970;2023-06-10T02:43:40;12.70;;;4.30;;
60312;SDS011;46158;52.850;6.970;2023-06-10T02:46:08;11.73;;;4.13;;
60312;SDS011;46158;52.850;6.970;2023-06-10T02:48:40;13.13;;;4.10;;
60312;SDS011;46158;52.850;6.970;2023-06-10T02:51:10;9.77;;;4.03;;
60312;SDS011;46158;52.850;6.970;2023-06-10T02:53:36;13.10;;;4.50;;
60312;SDS011;46158;52.850;6.970;2023-06-10T02:56:10;10.07;;;3.90;;
60312;SDS011;46158;52.850;6.970;2023-06-10T02:58:43;12.50;;;4.30;;
60312;SDS011;46158;52.850;6.970;2023-06-10T03:01:13;13.52;;;4.40;;
60312;SDS011;46158;52.850;6.970;2023-06-10T03:06:13;11.57;;;3.80;;
60312;SDS011;46158;52.850;6.970;2023-06-10T03:08:39;11.15;;;4.13;;
60312;SDS011;46158;52.850;6.970;2023-06-10T03:11:08;11.73;;;3.88;;
60312;SDS011;46158;52.850;6.970;2023-06-10T03:13:38;9.07;;;3.60;;
60312;SDS011;46158;52.850;6.970;2023-06-10T03:16:07;11.68;;;4.00;;
60312;SDS011;46158;52.850;6.970;2023-06-10T03:18:37;10.98;;;4.03;;
60312;SDS011;46158;52.850;6.970;2023-06-10T03:21:06;12.93;;;4.20;;
60312;SDS011;46158;52.850;6.970;2023-06-10T03:23:33;10.57;;;3.92;;
60312;SDS011;46158;52.850;6.970;2023-06-10T03:26:00;12.07;;;4.28;;
60312;SDS011;46158;52.850;6.970;2023-06-10T03:28:25;12.68;;;4.40;;
60312;SDS011;46158;52.850;6.970;2023-06-10T03:30:52;11.68;;;3.83;;
60312;SDS011;46158;52.850;6.970;2023-06-10T03:33:21;12.27;;;4.15;;
60312;SDS011;46158;52.850;6.970;2023-06-10T03:35:57;12.25;;;3.90;;
60312;SDS011;46158;52.850;6.970;2023-06-10T03:38:29;9.07;;;3.80;;
60312;SDS011;46158;52.850;6.970;2023-06-10T03:40:54;9.07;;;3.70;;
60312;SDS011;46158;52.850;6.970;2023-06-10T03:43:20;9.70;;;3.60;;
60312;SDS011;46158;52.850;6.970;2023-06-10T03:45:46;10.90;;;3.72;;
60312;SDS011;46158;52.850;6.970;2023-06-10T03:48:13;8.52;;;3.53;;
60312;SDS011;46158;52.850;6.970;2023-06-10T03:50:41;10.63;;;3.88;;
60312;SDS011;46158;52.850;6.970;2023-06-10T03:53:07;9.63;;;3.90;;
60312;SDS011;46158;52.850;6.970;2023-06-10T03:55:37;11.52;;;3.70;;
60312;SDS011;46158;52.850;6.970;2023-06-10T03:58:05;8.48;;;3.20;;
60312;SDS011;46158;52.850;6.970;2023-06-10T04:00:39;10.07;;;3.75;;
60312;SDS011;46158;52.850;6.970;2023-06-10T04:03:08;9.07;;;3.35;;
60312;SDS011;46158;52.850;6.970;2023-06-10T04:05:39;8.07;;;3.45;;
60312;SDS011;46158;52.850;6.970;2023-06-10T04:08:11;8.90;;;3.60;;
60312;SDS011;46158;52.850;6.970;2023-06-10T04:10:40;7.55;;;3.38;;
60312;SDS011;46158;52.850;6.970;2023-06-10T04:13:09;9.23;;;3.50;;
60312;SDS011;46158;52.850;6.970;2023-06-10T04:15:39;7.82;;;3.40;;
60312;SDS011;46158;52.850;6.970;2023-06-10T04:18:11;9.38;;;3.40;;
60312;SDS011;46158;52.850;6.970;2023-06-10T04:20:41;9.73;;;3.70;;
60312;SDS011;46158;52.850;6.970;2023-06-10T04:23:09;9.27;;;3.75;;
60312;SDS011;46158;52.850;6.970;2023-06-10T04:25:38;9.60;;;3.47;;
60312;SDS011;46158;52.850;6.970;2023-06-10T04:28:09;10.90;;;3.70;;
60312;SDS011;46158;52.850;6.970;2023-06-10T04:30:49;10.13;;;3.70;;
60312;SDS011;46158;52.850;6.970;2023-06-10T04:33:15;8.70;;;3.55;;
60312;SDS011;46158;52.850;6.970;2023-06-10T04:35:41;9.25;;;3.70;;
60312;SDS011;46158;52.850;6.970;2023-06-10T04:38:07;9.80;;;3.33;;
60312;SDS011;46158;52.850;6.970;2023-06-10T04:40:33;9.32;;;3.42;;
60312;SDS011;46158;52.850;6.970;2023-06-10T04:42:59;7.53;;;3.40;;
60312;SDS011;46158;52.850;6.970;2023-06-10T04:45:26;10.18;;;3.78;;
60312;SDS011;46158;52.850;6.970;2023-06-10T04:47:55;7.17;;;3.27;;
60312;SDS011;46158;52.850;6.970;2023-06-10T04:50:24;9.02;;;3.42;;
60312;SDS011;46158;52.850;6.970;2023-06-10T04:52:53;8.15;;;3.30;;
60312;SDS011;46158;52.850;6.970;2023-06-10T04:55:22;10.38;;;3.50;;
60312;SDS011;46158;52.850;6.970;2023-06-10T04:57:58;9.23;;;3.40;;
60312;SDS011;46158;52.850;6.970;2023-06-10T05:00:27;9.52;;;3.63;;
60312;SDS011;46158;52.850;6.970;2023-06-10T05:02:53;8.30;;;3.53;;
60312;SDS011;46158;52.850;6.970;2023-06-10T05:05:19;10.45;;;3.60;;
60312;SDS011;46158;52.850;6.970;2023-06-10T05:07:49;9.38;;;3.50;;
60312;SDS011;46158;52.850;6.970;2023-06-10T05:10:20;8.98;;;3.30;;
60312;SDS011;46158;52.850;6.970;2023-06-10T05:12:46;11.32;;;3.47;;
60312;SDS011;46158;52.850;6.970;2023-06-10T05:15:12;8.30;;;3.50;;
60312;SDS011;46158;52.850;6.970;2023-06-10T05:17:48;8.30;;;3.30;;
60312;SDS011;46158;52.850;6.970;2023-06-10T05:20:14;9.93;;;3.78;;
60312;SDS011;46158;52.850;6.970;2023-06-10T05:22:40;7.78;;;3.30;;
60312;SDS011;46158;52.850;6.970;2023-06-10T05:25:06;10.27;;;3.72;;
60312;SDS011;46158;52.850;6.970;2023-06-10T05:27:32;10.02;;;3.40;;
60312;SDS011;46158;52.850;6.970;2023-06-10T05:29:59;10.35;;;3.50;;
60312;SDS011;46158;52.850;6.970;2023-06-10T05:32:24;8.40;;;3.42;;
60312;SDS011;46158;52.850;6.970;2023-06-10T05:34:51;11.20;;;3.75;;
60312;SDS011;46158;52.850;6.970;2023-06-10T05:37:18;8.88;;;3.38;;
60312;SDS011;46158;52.850;6.970;2023-06-10T05:39:43;8.20;;;3.25;;
60312;SDS011;46158;52.850;6.970;2023-06-10T05:42:09;9.43;;;3.47;;
60312;SDS011;46158;52.850;6.970;2023-06-10T05:44:35;11.30;;;3.58;;
60312;SDS011;46158;52.850;6.970;2023-06-10T05:47:02;9.55;;;3.38;;
60312;SDS011;46158;52.850;6.970;2023-06-10T05:49:28;7.45;;;3.20;;
60312;SDS011;46158;52.850;6.970;2023-06-10T05:51:54;8.32;;;3.60;;
60312;SDS011;46158;52.850;6.970;2023-06-10T05:54:21;8.32;;;3.40;;
60312;SDS011;46158;52.850;6.970;2023-06-10T05:56:47;7.15;;;3.30;;
60312;SDS011;46158;52.850;6.970;2023-06-10T05:59:13;8.93;;;3.33;;
60312;SDS011;46158;52.850;6.970;2023-06-10T06:01:45;8.02;;;3.50;;
60312;SDS011;46158;52.850;6.970;2023-06-10T06:04:14;8.85;;;3.30;;
60312;SDS011;46158;52.850;6.970;2023-06-10T06:06:40;9.10;;;3.63;;
60312;SDS011;46158;52.850;6.970;2023-06-10T06:09:06;10.07;;;3.58;;
60312;SDS011;46158;52.850;6.970;2023-06-10T06:11:32;11.65;;;4.03;;
60312;SDS011;46158;52.850;6.970;2023-06-10T06:13:59;9.98;;;3.30;;
60312;SDS011;46158;52.850;6.970;2023-06-10T06:16:25;9.50;;;3.53;;
60312;SDS011;46158;52.850;6.970;2023-06-10T06:18:51;8.02;;;3.47;;
60312;SDS011;46158;52.850;6.970;2023-06-10T06:21:17;9.50;;;3.25;;
60312;SDS011;46158;52.850;6.970;2023-06-10T06:23:43;9.43;;;3.30;;
60312;SDS011;46158;52.850;6.970;2023-06-10T06:26:09;9.40;;;3.50;;
60312;SDS011;46158;52.850;6.970;2023-06-10T06:28:35;7.90;;;3.15;;
60312;SDS011;46158;52.850;6.970;2023-06-10T06:31:01;8.75;;;3.30;;
60312;SDS011;46158;52.850;6.970;2023-06-10T06:33:27;8.15;;;3.00;;
60312;SDS011;46158;52.850;6.970;2023-06-10T06:35:53;9.90;;;3.20;;
60312;SDS011;46158;52.850;6.970;2023-06-10T06:38:18;7.38;;;2.90;;
60312;SDS011;46158;52.850;6.970;2023-06-10T06:40:44;7.40;;;3.17;;
60312;SDS011;46158;52.850;6.970;2023-06-10T06:43:10;7.03;;;2.90;;
60312;SDS011;46158;52.850;6.970;2023-06-10T06:45:36;7.28;;;3.00;;
60312;SDS011;46158;52.850;6.970;2023-06-10T06:48:02;6.50;;;3.00;;
60312;SDS011;46158;52.850;6.970;2023-06-10T06:50:28;8.60;;;3.30;;
60312;SDS011;46158;52.850;6.970;2023-06-10T06:52:56;8.43;;;3.30;;
60312;SDS011;46158;52.850;6.970;2023-06-10T06:55:22;7.50;;;3.13;;
60312;SDS011;46158;52.850;6.970;2023-06-10T06:57:48;8.95;;;3.50;;
60312;SDS011;46158;52.850;6.970;2023-06-10T07:00:14;5.55;;;2.90;;
60312;SDS011;46158;52.850;6.970;2023-06-10T07:02:40;10.00;;;3.42;;
60312;SDS011;46158;52.850;6.970;2023-06-10T07:05:06;9.05;;;3.42;;
60312;SDS011;46158;52.850;6.970;2023-06-10T07:07:32;11.20;;;3.58;;
60312;SDS011;46158;52.850;6.970;2023-06-10T07:09:59;10.02;;;3.38;;
60312;SDS011;46158;52.850;6.970;2023-06-10T07:12:25;11.43;;;3.83;;
60312;SDS011;46158;52.850;6.970;2023-06-10T07:14:51;10.40;;;3.70;;
60312;SDS011;46158;52.850;6.970;2023-06-10T07:17:17;12.40;;;3.80;;
60312;SDS011;46158;52.850;6.970;2023-06-10T07:19:43;8.52;;;3.28;;
60312;SDS011;46158;52.850;6.970;2023-06-10T07:22:10;11.88;;;3.67;;
60312;SDS011;46158;52.850;6.970;2023-06-10T07:24:37;12.43;;;3.78;;
60312;SDS011;46158;52.850;6.970;2023-06-10T07:27:02;8.65;;;3.55;;
60312;SDS011;46158;52.850;6.970;2023-06-10T07:29:29;10.93;;;3.53;;
60312;SDS011;46158;52.850;6.970;2023-06-10T07:31:55;11.23;;;4.10;;
60312;SDS011;46158;52.850;6.970;2023-06-10T07:34:22;17.27;;;4.65;;
60312;SDS011;46158;52.850;6.970;2023-06-10T07:36:47;15.88;;;4.93;;
60312;SDS011;46158;52.850;6.970;2023-06-10T07:39:13;16.02;;;5.22;;
60312;SDS011;46158;52.850;6.970;2023-06-10T07:41:40;15.25;;;5.03;;
60312;SDS011;46158;52.850;6.970;2023-06-10T07:44:06;16.30;;;4.90;;
60312;SDS011;46158;52.850;6.970;2023-06-10T07:46:32;17.17;;;5.13;;
60312;SDS011;46158;52.850;6.970;2023-06-10T07:48:58;16.65;;;5.05;;
60312;SDS011;46158;52.850;6.970;2023-06-10T07:51:23;14.90;;;4.97;;
60312;SDS011;46158;52.850;6.970;2023-06-10T07:53:49;16.38;;;5.05;;
60312;SDS011;46158;52.850;6.970;2023-06-10T07:56:15;17.10;;;5.60;;
60312;SDS011;46158;52.850;6.970;2023-06-10T07:58:41;16.15;;;5.28;;
60312;SDS011;46158;52.850;6.970;2023-06-10T08:01:07;19.42;;;5.75;;
60312;SDS011;46158;52.850;6.970;2023-06-10T08:03:36;16.40;;;5.25;;
60312;SDS011;46158;52.850;6.970;2023-06-10T08:06:02;16.42;;;5.15;;
60312;SDS011;46158;52.850;6.970;2023-06-10T08:08:27;18.80;;;5.28;;
60312;SDS011;46158;52.850;6.970;2023-06-10T08:10:53;16.70;;;5.30;;
60312;SDS011;46158;52.850;6.970;2023-06-10T08:13:19;18.00;;;5.63;;
60312;SDS011;46158;52.850;6.970;2023-06-10T08:15:45;18.30;;;5.40;;
60312;SDS011;46158;52.850;6.970;2023-06-10T08:18:12;14.85;;;4.95;;
60312;SDS011;46158;52.850;6.970;2023-06-10T08:20:38;18.38;;;5.78;;
60312;SDS011;46158;52.850;6.970;2023-06-10T08:23:04;17.08;;;5.28;;
60312;SDS011;46158;52.850;6.970;2023-06-10T08:25:30;15.52;;;5.03;;
60312;SDS011;46158;52.850;6.970;2023-06-10T08:27:55;18.77;;;5.50;;
60312;SDS011;46158;52.850;6.970;2023-06-10T08:30:24;18.08;;;6.00;;
60312;SDS011;46158;52.850;6.970;2023-06-10T08:32:50;18.08;;;5.50;;
60312;SDS011;46158;52.850;6.970;2023-06-10T08:35:20;17.13;;;5.50;;
60312;SDS011;46158;52.850;6.970;2023-06-10T08:37:48;14.95;;;4.95;;
60312;SDS011;46158;52.850;6.970;2023-06-10T08:40:15;14.45;;;4.60;;
60312;SDS011;46158;52.850;6.970;2023-06-10T08:45:07;16.15;;;4.97;;
60312;SDS011;46158;52.850;6.970;2023-06-10T08:47:36;14.50;;;4.97;;
60312;SDS011;46158;52.850;6.970;2023-06-10T08:50:07;13.95;;;4.55;;
60312;SDS011;46158;52.850;6.970;2023-06-10T08:52:36;14.52;;;4.82;;
60312;SDS011;46158;52.850;6.970;2023-06-10T08:55:27;15.52;;;4.70;;
60312;SDS011;46158;52.850;6.970;2023-06-10T08:58:16;14.13;;;4.85;;
60312;SDS011;46158;52.850;6.970;2023-06-10T09:00:42;15.35;;;5.10;;
60312;SDS011;46158;52.850;6.970;2023-06-10T09:03:11;15.40;;;4.95;;
60312;SDS011;46158;52.850;6.970;2023-06-10T09:05:37;14.57;;;4.95;;
60312;SDS011;46158;52.850;6.970;2023-06-10T09:08:05;14.07;;;4.70;;
60312;SDS011;46158;52.850;6.970;2023-06-10T09:10:32;14.32;;;4.90;;
60312;SDS011;46158;52.850;6.970;2023-06-10T09:12:58;14.00;;;4.97;;
60312;SDS011;46158;52.850;6.970;2023-06-10T09:15:24;14.13;;;4.63;;
60312;SDS011;46158;52.850;6.970;2023-06-10T09:17:50;14.38;;;4.53;;
60312;SDS011;46158;52.850;6.970;2023-06-10T09:20:16;14.73;;;4.88;;
60312;SDS011;46158;52.850;6.970;2023-06-10T09:22:43;13.50;;;4.70;;
60312;SDS011;46158;52.850;6.970;2023-06-10T09:25:10;11.90;;;4.68;;
60312;SDS011;46158;52.850;6.970;2023-06-10T09:30:28;13.27;;;4.72;;
60312;SDS011;46158;52.850;6.970;2023-06-10T09:32:55;12.90;;;4.43;;
60312;SDS011;46158;52.850;6.970;2023-06-10T09:35:22;13.02;;;4.45;;
60312;SDS011;46158;52.850;6.970;2023-06-10T09:37:53;13.65;;;4.10;;
60312;SDS011;46158;52.850;6.970;2023-06-10T09:40:20;12.57;;;4.18;;
60312;SDS011;46158;52.850;6.970;2023-06-10T09:42:46;13.82;;;4.45;;
60312;SDS011;46158;52.850;6.970;2023-06-10T09:45:22;12.85;;;4.30;;
60312;SDS011;46158;52.850;6.970;2023-06-10T09:47:52;14.30;;;4.38;;
60312;SDS011;46158;52.850;6.970;2023-06-10T09:50:19;13.02;;;4.30;;
60312;SDS011;46158;52.850;6.970;2023-06-10T09:52:45;9.85;;;4.22;;
60312;SDS011;46158;52.850;6.970;2023-06-10T09:55:12;11.20;;;3.95;;
60312;SDS011;46158;52.850;6.970;2023-06-10T09:57:42;10.70;;;4.10;;
60312;SDS011;46158;52.850;6.970;2023-06-10T10:00:11;12.50;;;4.40;;
60312;SDS011;46158;52.850;6.970;2023-06-10T10:05:22;11.82;;;4.20;;
60312;SDS011;46158;52.850;6.970;2023-06-10T10:07:48;11.10;;;4.28;;
60312;SDS011;46158;52.850;6.970;2023-06-10T10:10:15;12.38;;;4.15;;
60312;SDS011;46158;52.850;6.970;2023-06-10T10:12:48;11.40;;;4.10;;
60312;SDS011;46158;52.850;6.970;2023-06-10T10:15:21;11.43;;;4.20;;
60312;SDS011;46158;52.850;6.970;2023-06-10T10:17:50;12.60;;;4.22;;
60312;SDS011;46158;52.850;6.970;2023-06-10T10:20:17;10.95;;;3.88;;
60312;SDS011;46158;52.850;6.970;2023-06-10T10:22:47;9.98;;;3.88;;
60312;SDS011;46158;52.850;6.970;2023-06-10T10:25:28;11.95;;;4.00;;
60312;SDS011;46158;52.850;6.970;2023-06-10T10:28:06;11.63;;;3.90;;
60312;SDS011;46158;52.850;6.970;2023-06-10T10:30:34;12.43;;;4.00;;
60312;SDS011;46158;52.850;6.970;2023-06-10T10:33:08;12.45;;;4.22;;
60312;SDS011;46158;52.850;6.970;2023-06-10T10:35:38;12.23;;;3.97;;
60312;SDS011;46158;52.850;6.970;2023-06-10T10:38:05;13.15;;;4.35;;
60312;SDS011;46158;52.850;6.970;2023-06-10T10:40:32;10.07;;;3.65;;
60312;SDS011;46158;52.850;6.970;2023-06-10T10:42:58;11.57;;;3.90;;
60312;SDS011;46158;52.850;6.970;2023-06-10T10:45:27;10.05;;;3.97;;
60312;SDS011;46158;52.850;6.970;2023-06-10T10:50:58;9.75;;;3.80;;
60312;SDS011;46158;52.850;6.970;2023-06-10T10:53:24;9.27;;;3.50;;
60312;SDS011;46158;52.850;6.970;2023-06-10T10:58:36;11.60;;;3.80;;
60312;SDS011;46158;52.850;6.970;2023-06-10T11:01:12;10.77;;;3.70;;
60312;SDS011;46158;52.850;6.970;2023-06-10T11:03:42;10.10;;;3.70;;
60312;SDS011;46158;52.850;6.970;2023-06-10T11:06:13;10.02;;;3.42;;
60312;SDS011;46158;52.850;6.970;2023-06-10T11:08:46;10.15;;;3.67;;
60312;SDS011;46158;52.850;6.970;2023-06-10T11:11:20;11.70;;;3.83;;
60312;SDS011;46158;52.850;6.970;2023-06-10T11:16:41;8.40;;;3.40;;
60312;SDS011;46158;52.850;6.970;2023-06-10T11:19:08;11.52;;;3.58;;
60312;SDS011;46158;52.850;6.970;2023-06-10T11:24:25;13.07;;;4.15;;
60312;SDS011;46158;52.850;6.970;2023-06-10T11:26:53;9.18;;;3.75;;
60312;SDS011;46158;52.850;6.970;2023-06-10T11:32:33;9.23;;;3.90;;
60312;SDS011;46158;52.850;6.970;2023-06-10T11:35:04;10.73;;;3.90;;
60312;SDS011;46158;52.850;6.970;2023-06-10T11:37:32;10.95;;;3.80;;
60312;SDS011;46158;52.850;6.970;2023-06-10T11:40:01;9.57;;;3.78;;
60312;SDS011;46158;52.850;6.970;2023-06-10T11:42:40;10.20;;;3.75;;
60312;SDS011;46158;52.850;6.970;2023-06-10T11:45:07;10.95;;;3.80;;
60312;SDS011;46158;52.850;6.970;2023-06-10T11:48:12;10.48;;;3.60;;
60312;SDS011;46158;52.850;6.970;2023-06-10T11:50:31;9.80;;;3.63;;
60312;SDS011;46158;52.850;6.970;2023-06-10T11:53:04;8.95;;;3.38;;
60312;SDS011;46158;52.850;6.970;2023-06-10T11:55:43;10.30;;;3.70;;
60312;SDS011;46158;52.850;6.970;2023-06-10T12:00:51;9.68;;;3.55;;
60312;SDS011;46158;52.850;6.970;2023-06-10T12:03:22;10.60;;;3.90;;
60312;SDS011;46158;52.850;6.970;2023-06-10T12:08:30;8.52;;;3.40;;
60312;SDS011;46158;52.850;6.970;2023-06-10T12:11:09;11.77;;;3.70;;
60312;SDS011;46158;52.850;6.970;2023-06-10T12:13:36;10.55;;;3.70;;
60312;SDS011;46158;52.850;6.970;2023-06-10T12:16:08;10.23;;;3.75;;
60312;SDS011;46158;52.850;6.970;2023-06-10T12:18:35;11.40;;;3.70;;
60312;SDS011;46158;52.850;6.970;2023-06-10T12:21:14;9.60;;;3.70;;
60312;SDS011;46158;52.850;6.970;2023-06-10T12:23:59;9.45;;;3.70;;
60312;SDS011;46158;52.850;6.970;2023-06-10T12:29:22;8.40;;;3.33;;
60312;SDS011;46158;52.850;6.970;2023-06-10T12:31:55;10.52;;;3.80;;
60312;SDS011;46158;52.850;6.970;2023-06-10T12:34:33;10.25;;;3.65;;
60312;SDS011;46158;52.850;6.970;2023-06-10T12:37:10;8.60;;;3.60;;
60312;SDS011;46158;52.850;6.970;2023-06-10T12:39:39;8.57;;;3.45;;
60312;SDS011;46158;52.850;6.970;2023-06-10T12:42:08;10.57;;;3.70;;
60312;SDS011;46158;52.850;6.970;2023-06-10T12:44:42;10.20;;;3.72;;
60312;SDS011;46158;52.850;6.970;2023-06-10T12:47:11;11.73;;;4.00;;
60312;SDS011;46158;52.850;6.970;2023-06-10T12:49:42;10.63;;;3.60;;
60312;SDS011;46158;52.850;6.970;2023-06-10T12:52:08;6.55;;;3.17;;
60312;SDS011;46158;52.850;6.970;2023-06-10T12:54:38;7.82;;;3.47;;
60312;SDS011;46158;52.850;6.970;2023-06-10T12:57:07;11.00;;;3.97;;
60312;SDS011;46158;52.850;6.970;2023-06-10T12:59:36;11.10;;;3.40;;
60312;SDS011;46158;52.850;6.970;2023-06-10T13:02:05;7.93;;;3.25;;
60312;SDS011;46158;52.850;6.970;2023-06-10T13:04:32;8.15;;;3.38;;
60312;SDS011;46158;52.850;6.970;2023-06-10T13:07:03;9.88;;;3.53;;
60312;SDS011;46158;52.850;6.970;2023-06-10T13:09:30;8.60;;;3.40;;
60312;SDS011;46158;52.850;6.970;2023-06-10T13:11:59;8.90;;;3.20;;
60312;SDS011;46158;52.850;6.970;2023-06-10T13:14:25;8.43;;;3.53;;
60312;SDS011;46158;52.850;6.970;2023-06-10T13:16:51;9.57;;;3.85;;
60312;SDS011;46158;52.850;6.970;2023-06-10T13:19:25;8.55;;;3.47;;
60312;SDS011;46158;52.850;6.970;2023-06-10T13:21:52;8.07;;;3.40;;
60312;SDS011;46158;52.850;6.970;2023-06-10T13:24:21;9.45;;;3.40;;
60312;SDS011;46158;52.850;6.970;2023-06-10T13:26:47;12.70;;;3.65;;
60312;SDS011;46158;52.850;6.970;2023-06-10T13:29:17;7.30;;;3.33;;
60312;SDS011;46158;52.850;6.970;2023-06-10T13:31:49;8.85;;;3.50;;
60312;SDS011;46158;52.850;6.970;2023-06-10T13:34:17;8.48;;;3.25;;
60312;SDS011;46158;52.850;6.970;2023-06-10T13:36:47;9.50;;;3.30;;
60312;SDS011;46158;52.850;6.970;2023-06-10T13:39:18;9.00;;;3.38;;
60312;SDS011;46158;52.850;6.970;2023-06-10T13:41:44;8.02;;;3.30;;
60312;SDS011;46158;52.850;6.970;2023-06-10T13:44:13;8.18;;;3.40;;
60312;SDS011;46158;52.850;6.970;2023-06-10T13:46:39;8.07;;;3.40;;
60312;SDS011;46158;52.850;6.970;2023-06-10T13:49:06;12.65;;;3.30;;
60312;SDS011;46158;52.850;6.970;2023-06-10T13:51:32;6.13;;;2.92;;
60312;SDS011;46158;52.850;6.970;2023-06-10T13:54:01;8.52;;;3.28;;
60312;SDS011;46158;52.850;6.970;2023-06-10T13:56:33;8.70;;;3.20;;
60312;SDS011;46158;52.850;6.970;2023-06-10T13:59:03;9.17;;;3.37;;
60312;SDS011;46158;52.850;6.970;2023-06-10T14:01:35;7.22;;;3.10;;
60312;SDS011;46158;52.850;6.970;2023-06-10T14:04:08;8.70;;;3.33;;
60312;SDS011;46158;52.850;6.970;2023-06-10T14:06:39;9.18;;;3.20;;
60312;SDS011;46158;52.850;6.970;2023-06-10T14:09:05;6.72;;;3.20;;
60312;SDS011;46158;52.850;6.970;2023-06-10T14:11:36;7.72;;;3.10;;
60312;SDS011;46158;52.850;6.970;2023-06-10T14:14:06;8.48;;;3.10;;
60312;SDS011;46158;52.850;6.970;2023-06-10T14:16:46;8.52;;;3.30;;
60312;SDS011;46158;52.850;6.970;2023-06-10T14:19:13;8.83;;;3.20;;
60312;SDS011;46158;52.850;6.970;2023-06-10T14:21:45;9.00;;;3.10;;
60312;SDS011;46158;52.850;6.970;2023-06-10T14:24:13;9.95;;;3.72;;
60312;SDS011;46158;52.850;6.970;2023-06-10T14:26:39;8.30;;;3.13;;
60312;SDS011;46158;52.850;6.970;2023-06-10T14:29:05;8.57;;;3.20;;
60312;SDS011;46158;52.850;6.970;2023-06-10T14:31:32;8.45;;;3.35;;
60312;SDS011;46158;52.850;6.970;2023-06-10T14:34:01;8.57;;;3.35;;
60312;SDS011;46158;52.850;6.970;2023-06-10T14:36:27;7.85;;;3.10;;
60312;SDS011;46158;52.850;6.970;2023-06-10T14:38:54;7.28;;;3.17;;
60312;SDS011;46158;52.850;6.970;2023-06-10T14:41:22;9.73;;;3.50;;
60312;SDS011;46158;52.850;6.970;2023-06-10T14:43:54;6.97;;;3.40;;
60312;SDS011;46158;52.850;6.970;2023-06-10T14:46:22;12.43;;;4.00;;
60312;SDS011;46158;52.850;6.970;2023-06-10T14:48:48;9.55;;;3.47;;
60312;SDS011;46158;52.850;6.970;2023-06-10T14:51:14;7.00;;;3.20;;
60312;SDS011;46158;52.850;6.970;2023-06-10T14:53:44;8.70;;;3.50;;
60312;SDS011;46158;52.850;6.970;2023-06-10T14:56:11;8.68;;;3.20;;
60312;SDS011;46158;52.850;6.970;2023-06-10T14:58:39;10.52;;;3.45;;
60312;SDS011;46158;52.850;6.970;2023-06-10T15:01:08;8.98;;;3.50;;
60312;SDS011;46158;52.850;6.970;2023-06-10T15:03:37;8.75;;;3.45;;
60312;SDS011;46158;52.850;6.970;2023-06-10T15:06:06;9.13;;;3.27;;
60312;SDS011;46158;52.850;6.970;2023-06-10T15:08:32;10.65;;;3.50;;
60312;SDS011;46158;52.850;6.970;2023-06-10T15:11:08;8.52;;;3.53;;
60312;SDS011;46158;52.850;6.970;2023-06-10T15:13:34;8.13;;;3.25;;
60312;SDS011;46158;52.850;6.970;2023-06-10T15:16:00;6.07;;;2.83;;
60312;SDS011;46158;52.850;6.970;2023-06-10T15:18:28;8.80;;;3.40;;
60312;SDS011;46158;52.850;6.970;2023-06-10T15:20:54;7.47;;;3.38;;
60312;SDS011;46158;52.850;6.970;2023-06-10T15:23:26;10.52;;;3.17;;
60312;SDS011;46158;52.850;6.970;2023-06-10T15:25:55;8.82;;;3.38;;
60312;SDS011;46158;52.850;6.970;2023-06-10T15:28:26;8.65;;;3.13;;
60312;SDS011;46158;52.850;6.970;2023-06-10T15:30:52;10.93;;;3.50;;